createdAt,value
2018-06-28T00:00:13.463Z,11.10
2018-06-28T00:02:41.562Z,10.83
2018-06-28T00:05:09.622Z,11.97
2018-06-28T00:07:37.690Z,12.80
2018-06-28T00:10:05.767Z,12.20
2018-06-28T00:12:33.855Z,12.13
2018-06-28T00:15:01.930Z,11.47
2018-06-28T00:17:30.001Z,12.17
2018-06-28T00:19:58.087Z,11.47
2018-06-28T00:22:26.190Z,11.40
2018-06-28T00:24:54.280Z,12.80
2018-06-28T00:27:22.347Z,13.13
2018-06-28T00:29:50.418Z,11.70
2018-06-28T00:32:18.554Z,11.97
2018-06-28T00:34:46.690Z,12.07
2018-06-28T00:37:14.786Z,12.13
2018-06-28T00:39:42.859Z,10.90
2018-06-28T00:42:10.980Z,12.20
2018-06-28T00:44:39.051Z,11.37
2018-06-28T00:47:07.126Z,11.37
2018-06-28T00:49:35.208Z,11.17
2018-06-28T00:52:03.300Z,12.20
2018-06-28T00:54:31.638Z,11.03
2018-06-28T00:56:59.506Z,11.00
2018-06-28T00:59:27.567Z,11.10
2018-06-28T01:01:55.652Z,10.87
2018-06-28T01:04:23.755Z,10.50
2018-06-28T01:06:51.850Z,12.03
2018-06-28T01:09:19.916Z,12.10
2018-06-28T01:11:47.995Z,11.53
2018-06-28T01:14:16.098Z,11.17
2018-06-28T01:16:44.195Z,11.97
2018-06-28T01:19:12.278Z,11.57
2018-06-28T01:21:40.360Z,11.77
2018-06-28T01:24:08.446Z,12.70
2018-06-28T01:26:36.527Z,12.30
2018-06-28T01:29:04.614Z,12.33
2018-06-28T01:31:32.701Z,11.20
2018-06-28T01:34:00.786Z,12.50
2018-06-28T01:36:28.895Z,11.87
2018-06-28T01:38:56.972Z,12.33
2018-06-28T01:41:30.840Z,12.80
2018-06-28T01:43:58.922Z,12.93
2018-06-28T01:46:27.022Z,13.07
2018-06-28T01:48:55.247Z,12.90
2018-06-28T01:51:23.321Z,13.00
2018-06-28T01:53:51.398Z,12.20
2018-06-28T01:56:19.476Z,12.60
2018-06-28T01:58:47.590Z,13.87
2018-06-28T02:01:15.716Z,14.10
2018-06-28T02:03:43.802Z,13.37
2018-06-28T02:06:11.882Z,13.00
2018-06-28T02:08:39.975Z,14.45
2018-06-28T02:11:08.027Z,13.20
2018-06-28T02:13:36.089Z,13.73
2018-06-28T02:16:04.177Z,12.13
2018-06-28T02:18:32.233Z,12.73
2018-06-28T02:21:00.339Z,14.17
2018-06-28T02:23:28.419Z,13.47
2018-06-28T02:25:56.517Z,12.93
2018-06-28T02:28:24.592Z,13.00
2018-06-28T02:30:52.699Z,13.23
2018-06-28T02:33:20.783Z,13.57
2018-06-28T02:35:48.881Z,13.57
2018-06-28T02:38:16.952Z,14.17
2018-06-28T02:40:45.011Z,12.57
2018-06-28T02:43:13.087Z,13.47
2018-06-28T02:45:41.146Z,12.93
2018-06-28T02:48:09.226Z,14.10
2018-06-28T02:50:37.328Z,12.80
2018-06-28T02:53:05.519Z,12.97
2018-06-28T02:55:33.568Z,15.60
2018-06-28T02:58:01.655Z,14.00
2018-06-28T03:00:30.332Z,12.90
2018-06-28T03:02:58.415Z,13.23
2018-06-28T03:05:26.486Z,13.13
2018-06-28T03:07:54.590Z,13.47
2018-06-28T03:10:22.684Z,13.80
2018-06-28T03:12:50.806Z,14.13
2018-06-28T03:15:18.867Z,12.97
2018-06-28T03:17:46.931Z,12.93
2018-06-28T03:20:15.007Z,13.33
2018-06-28T03:22:43.092Z,12.73
2018-06-28T03:25:11.350Z,15.10
2018-06-28T03:27:39.438Z,13.13
2018-06-28T03:30:07.518Z,13.70
2018-06-28T03:32:35.595Z,13.30
2018-06-28T03:35:03.500Z,12.77
2018-06-28T03:37:31.558Z,13.13
2018-06-28T03:39:59.646Z,13.53
2018-06-28T03:42:27.801Z,15.83
2018-06-28T03:44:55.883Z,13.90
2018-06-28T03:47:23.980Z,13.80
2018-06-28T03:49:52.046Z,13.47
2018-06-28T03:52:20.118Z,12.93
2018-06-28T03:54:48.283Z,13.40
2018-06-28T03:57:16.370Z,13.47
2018-06-28T03:59:44.443Z,14.33
2018-06-28T04:02:12.503Z,13.50
2018-06-28T04:04:40.571Z,13.80
2018-06-28T04:07:08.659Z,14.67
2018-06-28T04:09:36.742Z,14.40
2018-06-28T04:12:04.827Z,14.57
2018-06-28T04:14:32.930Z,14.73
2018-06-28T04:17:01.006Z,15.10
2018-06-28T04:19:29.102Z,13.67
2018-06-28T04:21:57.248Z,13.97
2018-06-28T04:24:25.355Z,14.50
2018-06-28T04:26:53.526Z,16.77
2018-06-28T04:29:21.583Z,15.90
2018-06-28T04:31:49.663Z,17.57
2018-06-28T04:34:17.740Z,14.60
2018-06-28T04:36:45.830Z,15.57
2018-06-28T04:39:13.911Z,15.17
2018-06-28T04:41:41.967Z,19.13
2018-06-28T04:44:10.045Z,17.43
2018-06-28T04:46:38.135Z,18.30
2018-06-28T04:49:06.341Z,18.63
2018-06-28T04:51:34.435Z,17.33
2018-06-28T04:54:02.651Z,17.50
2018-06-28T04:56:30.721Z,17.50
2018-06-28T04:58:58.793Z,17.37
2018-06-28T05:01:26.865Z,18.70
2018-06-28T05:03:55.006Z,17.10
2018-06-28T05:06:23.206Z,17.83
2018-06-28T05:08:51.331Z,17.43
2018-06-28T05:11:19.251Z,17.97
2018-06-28T05:13:47.318Z,19.00
2018-06-28T05:16:15.410Z,18.97
2018-06-28T05:18:43.632Z,21.77
2018-06-28T05:21:11.705Z,19.47
2018-06-28T05:23:39.785Z,20.73
2018-06-28T05:26:07.843Z,19.87
2018-06-28T05:28:36.032Z,19.70
2018-06-28T05:31:04.135Z,18.20
2018-06-28T05:33:32.231Z,20.10
2018-06-28T05:36:00.340Z,20.47
2018-06-28T05:38:28.515Z,19.93
2018-06-28T05:40:56.507Z,18.23
2018-06-28T05:43:24.592Z,19.93
2018-06-28T05:45:52.675Z,19.40
2018-06-28T05:48:20.775Z,19.43
2018-06-28T05:50:48.630Z,20.47
2018-06-28T05:53:16.514Z,19.97
2018-06-28T05:55:44.595Z,19.80
2018-06-28T05:58:12.690Z,18.70
2018-06-28T06:00:40.759Z,17.93
2018-06-28T06:03:08.971Z,18.83
2018-06-28T06:05:37.047Z,19.50
2018-06-28T06:08:05.131Z,18.47
2018-06-28T06:10:33.221Z,20.62
2018-06-28T06:13:01.299Z,19.33
2018-06-28T06:15:29.171Z,18.87
2018-06-28T06:17:57.053Z,17.90
2018-06-28T06:20:25.127Z,17.90
2018-06-28T06:22:53.185Z,18.70
2018-06-28T06:25:21.276Z,19.67
2018-06-28T06:27:49.344Z,17.27
2018-06-28T06:30:17.431Z,17.47
2018-06-28T06:32:45.529Z,17.82
2018-06-28T06:35:13.604Z,16.37
2018-06-28T06:37:41.677Z,16.50
2018-06-28T06:40:09.758Z,16.05
2018-06-28T06:42:37.895Z,18.07
2018-06-28T06:45:06.339Z,17.55
2018-06-28T06:47:34.447Z,16.75
2018-06-28T06:50:02.535Z,16.85
2018-06-28T06:52:30.618Z,15.30
2018-06-28T06:54:58.750Z,16.67
2018-06-28T06:57:26.654Z,16.65
2018-06-28T06:59:54.751Z,16.27
2018-06-28T07:02:22.878Z,15.75
2018-06-28T07:04:51.025Z,14.58
2018-06-28T07:07:19.131Z,15.98
2018-06-28T07:09:47.215Z,15.90
2018-06-28T07:12:15.320Z,13.85
2018-06-28T07:14:45.694Z,14.93
2018-06-28T07:17:13.784Z,12.88
2018-06-28T07:19:41.882Z,13.70
2018-06-28T07:22:09.830Z,14.78
2018-06-28T07:24:38.218Z,13.25
2018-06-28T07:27:06.318Z,12.95
2018-06-28T07:29:34.171Z,13.38
2018-06-28T07:32:02.244Z,12.88
2018-06-28T07:34:30.358Z,12.18
2018-06-28T07:36:58.434Z,13.25
2018-06-28T07:39:26.597Z,12.68
2018-06-28T07:41:54.686Z,11.73
2018-06-28T07:44:22.767Z,12.15
2018-06-28T07:46:51.251Z,12.85
2018-06-28T07:49:19.342Z,12.73
2018-06-28T07:51:47.422Z,13.50
2018-06-28T07:54:15.533Z,12.45
2018-06-28T07:56:43.623Z,12.53
2018-06-28T07:59:11.706Z,12.40
2018-06-28T08:01:39.787Z,11.18
2018-06-28T08:04:07.917Z,12.73
2018-06-28T08:06:36.006Z,11.88
2018-06-28T08:09:06.131Z,11.25
2018-06-28T08:11:34.250Z,11.88
2018-06-28T08:14:02.383Z,11.10
2018-06-28T08:16:30.459Z,9.93
2018-06-28T08:18:58.539Z,10.58
2018-06-28T08:21:26.645Z,11.12
2018-06-28T08:23:54.736Z,9.73
2018-06-28T08:26:22.831Z,9.55
2018-06-28T08:28:50.931Z,8.33
2018-06-28T08:31:20.119Z,9.08
2018-06-28T08:33:48.200Z,9.35
2018-06-28T08:36:16.405Z,10.50
2018-06-28T08:38:45.267Z,9.15
2018-06-28T08:41:13.335Z,10.78
2018-06-28T08:43:41.449Z,8.88
2018-06-28T08:46:09.553Z,8.85
2018-06-28T08:48:38.315Z,7.67
2018-06-28T08:51:06.447Z,8.20
2018-06-28T08:53:34.559Z,8.10
2018-06-28T08:56:05.279Z,8.70
2018-06-28T08:58:33.367Z,7.55
2018-06-28T09:01:01.475Z,7.35
2018-06-28T09:03:29.558Z,7.30
2018-06-28T09:05:57.644Z,6.10
2018-06-28T09:08:25.766Z,5.97
2018-06-28T09:10:54.079Z,6.30
2018-06-28T09:13:22.150Z,6.42
2018-06-28T09:15:50.218Z,5.92
2018-06-28T09:18:18.306Z,5.15
2018-06-28T09:20:46.452Z,4.80
2018-06-28T09:23:14.559Z,4.25
2018-06-28T09:25:42.667Z,3.75
2018-06-28T09:28:35.452Z,4.00
2018-06-28T09:31:03.539Z,3.25
2018-06-28T09:33:32.410Z,3.60
2018-06-28T09:36:00.519Z,4.05
2018-06-28T09:38:28.659Z,3.22
2018-06-28T09:40:56.742Z,2.90
2018-06-28T09:43:24.819Z,2.58
2018-06-28T09:45:52.895Z,3.10
2018-06-28T09:48:20.978Z,2.80
2018-06-28T09:50:49.025Z,3.12
2018-06-28T09:53:17.115Z,3.80
2018-06-28T09:55:45.176Z,3.10
2018-06-28T09:58:13.474Z,3.52
2018-06-28T10:00:42.879Z,3.00
2018-06-28T10:03:11.430Z,3.40
2018-06-28T10:05:40.047Z,3.58
2018-06-28T10:08:08.819Z,3.90
2018-06-28T10:10:36.944Z,4.20
2018-06-28T10:13:05.081Z,3.83
2018-06-28T10:15:33.151Z,3.62
2018-06-28T10:18:01.308Z,3.47
2018-06-28T10:20:29.090Z,3.47
2018-06-28T10:22:57.226Z,3.50
2018-06-28T10:25:25.300Z,3.12
2018-06-28T10:27:53.372Z,3.00
2018-06-28T10:30:21.461Z,2.95
2018-06-28T10:32:49.820Z,3.27
2018-06-28T10:35:17.690Z,3.80
2018-06-28T10:37:45.791Z,3.55
2018-06-28T10:40:13.863Z,3.42
2018-06-28T10:42:42.010Z,2.50
2018-06-28T10:45:10.094Z,3.10
2018-06-28T10:47:38.256Z,3.33
2018-06-28T10:50:06.238Z,3.45
2018-06-28T10:52:34.311Z,2.83
2018-06-28T10:55:02.395Z,3.12
2018-06-28T10:57:30.474Z,3.15
2018-06-28T10:59:58.530Z,3.33
2018-06-28T11:02:26.613Z,3.42
2018-06-28T11:04:54.691Z,3.15
2018-06-28T11:07:22.817Z,3.02
2018-06-28T11:09:53.226Z,3.15
2018-06-28T11:12:21.354Z,3.72
2018-06-28T11:14:49.412Z,2.98
2018-06-28T11:17:17.555Z,2.83
2018-06-28T11:19:45.481Z,2.92
2018-06-28T11:22:13.329Z,3.20
2018-06-28T11:24:41.417Z,2.80
2018-06-28T11:27:09.614Z,3.02
2018-06-28T11:29:37.902Z,2.92
2018-06-28T11:32:05.980Z,3.47
2018-06-28T11:34:34.507Z,3.35
2018-06-28T11:37:02.564Z,3.10
2018-06-28T11:39:30.621Z,3.67
2018-06-28T11:41:58.795Z,3.95
2018-06-28T11:44:26.868Z,4.35
2018-06-28T11:46:55.286Z,3.65
2018-06-28T11:49:23.395Z,3.67
2018-06-28T11:51:51.472Z,3.52
2018-06-28T11:54:19.555Z,3.80
2018-06-28T11:56:47.626Z,4.62
2018-06-28T11:59:15.696Z,4.15
2018-06-28T12:01:43.753Z,4.37
2018-06-28T12:04:11.859Z,4.05
2018-06-28T12:06:39.941Z,4.47
2018-06-28T12:09:09.578Z,5.55
2018-06-28T12:11:37.647Z,5.45
2018-06-28T12:14:05.718Z,5.53
2018-06-28T12:16:33.785Z,6.37
2018-06-28T12:19:01.883Z,6.65
2018-06-28T12:21:29.970Z,6.95
2018-06-28T12:23:58.065Z,6.40
2018-06-28T12:26:26.198Z,5.97
2018-06-28T12:28:54.304Z,6.30
2018-06-28T12:31:22.367Z,6.15
2018-06-28T12:33:50.455Z,6.00
2018-06-28T12:36:18.630Z,7.40
2018-06-28T12:38:46.695Z,7.08
2018-06-28T12:41:14.857Z,5.97
2018-06-28T12:43:43.186Z,5.95
2018-06-28T12:46:11.258Z,5.75
2018-06-28T12:48:39.323Z,5.47
2018-06-28T12:51:07.402Z,5.28
2018-06-28T12:53:35.468Z,5.40
2018-06-28T12:56:36.744Z,4.65
2018-06-28T12:59:06.231Z,4.77
2018-06-28T13:01:34.428Z,4.35
2018-06-28T13:04:02.566Z,4.80
2018-06-28T13:06:30.716Z,4.85
2018-06-28T13:08:59.321Z,5.28
2018-06-28T13:11:27.911Z,4.35
2018-06-28T13:13:55.986Z,4.65
2018-06-28T13:16:26.315Z,4.85
2018-06-28T13:18:54.427Z,4.58
2018-06-28T13:21:22.494Z,4.47
2018-06-28T13:23:50.581Z,4.35
2018-06-28T13:26:19.111Z,4.50
2018-06-28T13:28:47.516Z,5.28
2018-06-28T13:31:15.652Z,4.55
2018-06-28T13:33:43.825Z,4.90
2018-06-28T13:36:11.644Z,5.40
2018-06-28T13:38:39.723Z,4.90
2018-06-28T13:41:07.960Z,4.50
2018-06-28T13:43:35.894Z,4.70
2018-06-28T13:46:04.234Z,4.35
2018-06-28T13:48:32.309Z,4.50
2018-06-28T13:51:00.374Z,4.33
2018-06-28T13:53:29.306Z,4.40
2018-06-28T13:55:57.483Z,4.10
2018-06-28T13:58:27.833Z,3.70
2018-06-28T14:00:55.898Z,3.50
2018-06-28T14:03:24.000Z,4.05
2018-06-28T14:05:52.066Z,4.05
2018-06-28T14:08:20.153Z,3.83
2018-06-28T14:10:48.211Z,4.28
2018-06-28T14:13:16.283Z,3.62
2018-06-28T14:15:44.364Z,3.42
2018-06-28T14:18:12.479Z,3.80
2018-06-28T14:20:40.599Z,3.55
2018-06-28T14:23:08.688Z,3.58
2018-06-28T14:25:36.838Z,3.40
2018-06-28T14:28:04.967Z,3.10
2018-06-28T14:30:33.050Z,3.60
2018-06-28T14:33:01.144Z,3.98
2018-06-28T14:35:29.215Z,3.85
2018-06-28T14:37:57.284Z,3.30
2018-06-28T14:40:25.390Z,3.02
2018-06-28T14:42:53.274Z,2.65
2018-06-28T14:45:21.482Z,3.02
2018-06-28T14:47:49.552Z,2.90
2018-06-28T14:50:17.639Z,3.07
2018-06-28T14:52:45.734Z,2.70
2018-06-28T14:55:13.807Z,2.92
2018-06-28T14:57:41.900Z,2.62
2018-06-28T15:00:09.862Z,2.62
2018-06-28T15:02:37.984Z,2.87
2018-06-28T15:05:06.051Z,2.50
2018-06-28T15:07:34.212Z,3.00
2018-06-28T15:10:02.286Z,3.00
2018-06-28T15:12:30.495Z,3.15
2018-06-28T15:14:58.565Z,3.17
2018-06-28T15:17:26.636Z,3.37
2018-06-28T15:19:54.734Z,2.77
2018-06-28T15:22:22.795Z,3.00
2018-06-28T15:24:52.295Z,3.10
2018-06-28T15:27:20.648Z,2.50
2018-06-28T15:29:48.719Z,1.92
2018-06-28T15:32:16.826Z,2.95
2018-06-28T15:34:44.906Z,2.85
2018-06-28T15:37:12.986Z,3.08
2018-06-28T15:39:41.116Z,1.85
2018-06-28T15:42:09.190Z,1.60
2018-06-28T15:44:37.270Z,1.85
2018-06-28T15:47:05.356Z,1.82
2018-06-28T15:49:33.427Z,1.75
2018-06-28T15:52:01.582Z,1.62
2018-06-28T15:54:29.599Z,1.70
2018-06-28T15:56:57.689Z,1.67
2018-06-28T15:59:25.906Z,2.00
2018-06-28T16:01:54.086Z,1.32
2018-06-28T16:04:22.145Z,1.60
2018-06-28T16:06:50.207Z,2.10
2018-06-28T16:09:18.295Z,1.85
2018-06-28T16:11:46.379Z,2.08
2018-06-28T16:14:14.457Z,1.75
2018-06-28T16:16:42.531Z,1.87
2018-06-28T16:19:10.597Z,1.70
2018-06-28T16:21:41.745Z,1.77
2018-06-28T16:24:10.787Z,1.80
2018-06-28T16:26:39.014Z,2.40
2018-06-28T16:29:07.110Z,2.00
2018-06-28T16:31:35.223Z,1.67
2018-06-28T16:34:03.372Z,1.80
2018-06-28T16:36:31.394Z,1.55
2018-06-28T16:38:59.467Z,1.80
2018-06-28T16:41:27.552Z,2.20
2018-06-28T16:43:55.622Z,1.60
2018-06-28T16:46:23.752Z,1.60
2018-06-28T16:48:51.958Z,1.90
2018-06-28T16:51:20.069Z,1.67
2018-06-28T16:53:48.142Z,1.57
2018-06-28T16:56:16.211Z,1.85
2018-06-28T16:58:44.131Z,1.80
2018-06-28T17:01:12.350Z,1.80
2018-06-28T17:03:40.473Z,1.60
2018-06-28T17:06:08.542Z,1.90
2018-06-28T17:08:36.619Z,1.90
2018-06-28T17:11:04.784Z,1.77
2018-06-28T17:13:32.860Z,1.50
2018-06-28T17:16:01.026Z,1.70
2018-06-28T17:18:29.093Z,1.80
2018-06-28T17:20:57.159Z,1.52
2018-06-28T17:23:28.433Z,1.72
2018-06-28T17:25:56.532Z,1.80
2018-06-28T17:28:24.651Z,2.25
2018-06-28T17:30:52.747Z,1.75
2018-06-28T17:33:20.932Z,1.90
2018-06-28T17:35:49.053Z,1.80
2018-06-28T17:38:17.130Z,2.12
2018-06-28T17:40:45.849Z,2.10
2018-06-28T17:43:14.072Z,1.90
2018-06-28T17:45:42.155Z,2.15
2018-06-28T17:48:10.224Z,2.37
2018-06-28T17:50:38.299Z,2.27
2018-06-28T17:53:06.376Z,2.05
2018-06-28T17:55:34.255Z,2.02
2018-06-28T17:58:02.380Z,2.12
2018-06-28T18:00:30.487Z,2.42
2018-06-28T18:02:58.613Z,2.10
2018-06-28T18:05:26.699Z,1.90
2018-06-28T18:07:54.802Z,2.20
2018-06-28T18:10:22.879Z,2.30
2018-06-28T18:12:51.188Z,1.92
2018-06-28T18:15:19.252Z,1.80
2018-06-28T18:17:47.491Z,2.05
2018-06-28T18:20:15.560Z,1.85
2018-06-28T18:22:43.644Z,1.87
2018-06-28T18:25:11.724Z,1.80
2018-06-28T18:27:39.782Z,1.90
2018-06-28T18:30:07.888Z,1.62
2018-06-28T18:32:35.942Z,1.72
2018-06-28T18:35:04.027Z,1.60
2018-06-28T18:37:32.110Z,1.87
2018-06-28T18:40:01.847Z,1.50
2018-06-28T18:42:30.075Z,1.65
2018-06-28T18:44:57.966Z,1.57
2018-06-28T18:47:26.035Z,1.65
2018-06-28T18:49:54.119Z,1.15
2018-06-28T18:52:22.287Z,1.40
2018-06-28T18:54:50.356Z,1.72
2018-06-28T18:57:18.417Z,1.40
2018-06-28T18:59:46.483Z,1.60
2018-06-28T19:02:14.652Z,1.75
2018-06-28T19:04:42.631Z,1.57
2018-06-28T19:07:10.712Z,1.52
2018-06-28T19:09:45.080Z,1.50
2018-06-28T19:12:13.213Z,1.80
2018-06-28T19:14:46.694Z,1.80
2018-06-28T19:17:14.746Z,1.55
2018-06-28T19:19:42.840Z,1.50
2018-06-28T19:22:16.466Z,1.60
2018-06-28T19:24:44.514Z,1.42
2018-06-28T19:27:12.583Z,1.60
2018-06-28T19:29:46.128Z,1.85
2018-06-28T19:32:19.571Z,1.82
2018-06-28T19:34:47.715Z,1.40
2018-06-28T19:37:21.194Z,1.50
2018-06-28T19:39:54.778Z,1.50
2018-06-28T19:42:28.466Z,1.42
2018-06-28T19:44:56.570Z,1.50
2018-06-28T19:47:24.642Z,1.32
2018-06-28T19:49:57.994Z,1.77
2018-06-28T19:52:31.459Z,1.50
2018-06-28T19:54:59.728Z,1.70
2018-06-28T19:57:27.807Z,1.30
2018-06-28T19:59:55.944Z,1.50
2018-06-28T20:02:29.499Z,1.20
2018-06-28T20:04:57.582Z,1.42
2018-06-28T20:07:25.687Z,1.40
2018-06-28T20:09:53.863Z,1.42
2018-06-28T20:12:27.595Z,1.60
2018-06-28T20:15:01.309Z,1.27
2018-06-28T20:17:35.147Z,1.50
2018-06-28T20:20:08.864Z,1.57
2018-06-28T20:22:37.022Z,1.98
2018-06-28T20:25:05.203Z,15.50
2018-06-28T20:27:38.811Z,5.65
2018-06-28T20:30:12.543Z,1.80
2018-06-28T20:32:46.180Z,1.70
2018-06-28T20:35:14.432Z,1.67
2018-06-28T20:37:42.526Z,1.80
2018-06-28T20:40:10.856Z,1.98
2018-06-28T20:42:38.999Z,1.72
2018-06-28T20:45:07.232Z,1.82
2018-06-28T20:47:35.377Z,1.67
2018-06-28T20:50:03.773Z,1.20
2018-06-28T20:52:41.406Z,1.30
2018-06-28T20:55:09.606Z,1.50
2018-06-28T20:57:37.908Z,1.90
2018-06-28T21:00:13.994Z,2.10
2018-06-28T21:02:42.143Z,2.45
2018-06-28T21:05:10.182Z,2.10
2018-06-28T21:07:38.432Z,2.42
2018-06-28T21:10:06.571Z,3.20
2018-06-28T21:12:34.779Z,2.15
2018-06-28T21:15:03.455Z,2.00
2018-06-28T21:17:31.545Z,1.98
2018-06-28T21:19:59.677Z,2.60
2018-06-28T21:22:27.815Z,2.25
2018-06-28T21:24:55.954Z,2.10
2018-06-28T21:27:24.103Z,3.27
2018-06-28T21:29:53.268Z,2.08
2018-06-28T21:32:21.459Z,1.72
2018-06-28T21:34:49.593Z,2.95
2018-06-28T21:37:17.739Z,1.40
2018-06-28T21:39:46.030Z,1.75
2018-06-28T21:42:15.109Z,1.90
2018-06-28T21:44:43.260Z,1.82
2018-06-28T21:47:11.203Z,1.85
2018-06-28T21:49:40.682Z,1.70
2018-06-28T21:52:08.794Z,1.52
2018-06-28T21:54:36.918Z,1.75
2018-06-28T21:57:05.024Z,1.85
2018-06-28T21:59:33.242Z,1.85
2018-06-28T22:02:01.423Z,1.60
2018-06-28T22:04:29.519Z,1.42
2018-06-28T22:06:57.615Z,1.30
2018-06-28T22:09:25.731Z,1.47
2018-06-28T22:11:53.860Z,1.30
2018-06-28T22:14:22.338Z,1.70
2018-06-28T22:16:50.240Z,1.27
2018-06-28T22:19:18.418Z,1.20
2018-06-28T22:21:46.661Z,1.35
2018-06-28T22:24:14.947Z,1.40
2018-06-28T22:26:44.162Z,1.50
2018-06-28T22:29:12.145Z,1.65
2018-06-28T22:31:40.053Z,1.60
2018-06-28T22:34:08.322Z,1.87
2018-06-28T22:36:36.458Z,1.50
2018-06-28T22:39:07.597Z,1.60
2018-06-28T22:41:35.764Z,2.08
2018-06-28T22:44:04.162Z,1.80
2018-06-28T22:46:32.402Z,1.70
2018-06-28T22:49:00.542Z,1.60
2018-06-28T22:51:28.757Z,1.85
2018-06-28T22:53:56.947Z,1.98
2018-06-28T22:56:25.126Z,1.93
2018-06-28T22:58:53.312Z,2.10
2018-06-28T23:01:26.700Z,1.90
2018-06-28T23:03:55.015Z,2.00
2018-06-28T23:06:23.214Z,1.92
2018-06-28T23:08:51.402Z,1.98
2018-06-28T23:11:19.508Z,1.77
2018-06-28T23:13:47.721Z,1.57
2018-06-28T23:16:15.823Z,2.10
2018-06-28T23:18:43.946Z,1.62
2018-06-28T23:21:12.035Z,1.60
2018-06-28T23:23:40.099Z,2.10
2018-06-28T23:26:08.175Z,2.07
2018-06-28T23:28:36.250Z,1.87
2018-06-28T23:31:04.318Z,2.23
2018-06-28T23:33:32.374Z,2.20
2018-06-28T23:36:00.439Z,2.10
2018-06-28T23:38:28.501Z,1.83
2018-06-28T23:40:56.582Z,2.30
2018-06-28T23:43:24.639Z,2.97
2018-06-28T23:45:52.729Z,2.23
2018-06-28T23:48:20.791Z,2.10
2018-06-28T23:50:48.979Z,2.70
2018-06-28T23:53:16.941Z,2.40
2018-06-28T23:55:45.008Z,2.37
2018-06-28T23:58:13.062Z,2.30
